Time;durP1;ratioP1;P1;durP2;ratioP2;P2;SDS_P1;SDS_P2;PMS_P1;PMS_P2;Temp;Humidity;BMP_temperature;BMP_pressure;BME280_temperature;BME280_humidity;BME280_pressure;Samples;Min_cycle;Max_cycle;Signal;HPM_P1;HPM_P2
2022/08/06 00:01:36;;;;;;;8.23;3.90;;;10.40;99.90;;;;;;5073768;28;20133;-61
2022/08/06 00:04:05;;;;;;;8.13;3.92;;;10.30;99.90;;;;;;5088488;28;20105;-60
2022/08/06 00:06:34;;;;;;;7.95;4.38;;;10.30;99.90;;;;;;5101931;28;20377;-60
2022/08/06 00:09:04;;;;;;;6.30;4.07;;;10.30;99.90;;;;;;5109684;28;20437;-61
2022/08/06 00:11:35;;;;;;;7.20;4.70;;;10.30;99.90;;;;;;5112627;28;20069;-60
2022/08/06 00:14:10;;;;;;;6.95;4.05;;;10.30;99.90;;;;;;5110433;28;20042;-60
2022/08/06 00:16:38;;;;;;;6.63;5.00;;;10.30;99.90;;;;;;5112138;28;20122;-60
2022/08/06 00:19:04;;;;;;;6.10;4.32;;;10.30;99.90;;;;;;5112035;28;20089;-60
2022/08/06 00:21:30;;;;;;;6.85;4.22;;;10.30;99.90;;;;;;5112239;28;20046;-60
2022/08/06 00:23:56;;;;;;;6.43;4.90;;;10.30;99.90;;;;;;5094696;28;20361;-60
2022/08/06 00:26:24;;;;;;;6.18;4.20;;;10.30;99.90;;;;;;5091679;28;20459;-60
2022/08/06 00:28:50;;;;;;;4.93;4.20;;;10.30;99.90;;;;;;5108744;28;20063;-60
2022/08/06 00:31:16;;;;;;;6.53;3.85;;;10.30;99.90;;;;;;5109096;28;20082;-60
2022/08/06 00:33:43;;;;;;;7.05;4.78;;;10.30;99.90;;;;;;5089094;28;20027;-60
2022/08/06 00:36:09;;;;;;;5.53;3.35;;;10.30;99.90;;;;;;5109192;28;20046;-60
2022/08/06 00:38:36;;;;;;;8.55;4.10;;;10.30;99.90;;;;;;5111295;28;20063;-60
2022/08/06 00:41:03;;;;;;;8.35;3.85;;;10.30;99.90;;;;;;5109405;28;20511;-60
2022/08/06 00:43:29;;;;;;;4.20;3.60;;;10.30;99.90;;;;;;5108919;28;20055;-60
2022/08/06 00:45:55;;;;;;;5.10;3.47;;;10.30;99.90;;;;;;5113553;28;20039;-60
2022/08/06 00:48:21;;;;;;;5.57;3.45;;;10.40;99.90;;;;;;5113517;28;20408;-60
2022/08/06 00:50:47;;;;;;;6.70;3.30;;;10.30;99.90;;;;;;5113402;28;20043;-60
2022/08/06 00:53:12;;;;;;;5.78;3.20;;;10.20;99.90;;;;;;5113718;28;20041;-60
2022/08/06 00:55:40;;;;;;;4.80;3.35;;;10.10;99.90;;;;;;5115083;28;20514;-60
2022/08/06 00:58:06;;;;;;;5.43;3.70;;;10.00;99.90;;;;;;5114082;28;20124;-60
2022/08/06 01:00:33;;;;;;;4.38;3.20;;;9.90;99.90;;;;;;5113703;28;20043;-60
2022/08/06 01:02:59;;;;;;;4.85;3.53;;;9.90;99.90;;;;;;5112806;28;20506;-60
2022/08/06 01:05:25;;;;;;;6.70;3.22;;;9.90;99.90;;;;;;5113401;28;20035;-60
2022/08/06 01:07:51;;;;;;;6.57;3.38;;;10.00;99.90;;;;;;5097217;28;20054;-60
2022/08/06 01:10:17;;;;;;;4.50;3.22;;;9.90;99.90;;;;;;5080438;28;20051;-60
2022/08/06 01:12:42;;;;;;;4.63;2.88;;;9.90;99.90;;;;;;5115237;28;20460;-60
2022/08/06 01:15:09;;;;;;;5.50;3.53;;;9.90;99.90;;;;;;5115504;28;20035;-60
2022/08/06 01:17:41;;;;;;;6.20;3.67;;;9.80;99.90;;;;;;5097347;28;20039;-60
2022/08/06 01:20:26;;;;;;;8.10;4.03;;;9.80;99.90;;;;;;5097076;28;20039;-60
2022/08/06 01:23:10;;;;;;;7.75;4.22;;;9.90;99.90;;;;;;5114925;28;20042;-60
2022/08/06 01:25:45;;;;;;;10.10;4.15;;;9.90;99.90;;;;;;5079875;28;20040;-60
2022/08/06 01:28:31;;;;;;;199.48;19.10;;;9.80;99.90;;;;;;5080269;28;20040;-60
2022/08/06 01:31:08;;;;;;;221.80;18.98;;;9.80;99.90;;;;;;5096770;28;20127;-60
2022/08/06 01:33:51;;;;;;;105.10;8.82;;;9.70;99.90;;;;;;5112675;28;20290;-60
2022/08/06 01:36:24;;;;;;;20.30;3.72;;;9.70;99.90;;;;;;5115142;28;20040;-60
2022/08/06 01:38:52;;;;;;;33.55;5.47;;;9.70;99.90;;;;;;5097024;28;20037;-60
2022/08/06 01:41:38;;;;;;;4.55;3.30;;;9.60;99.90;;;;;;5114829;28;20043;-60
2022/08/06 01:44:19;;;;;;;7.82;4.70;;;9.60;99.90;;;;;;5079983;28;20395;-60
2022/08/06 01:46:48;;;;;;;41.38;6.03;;;9.60;99.90;;;;;;5114776;28;20079;-60
2022/08/06 01:49:19;;;;;;;7.47;3.30;;;9.60;99.90;;;;;;5096764;28;20499;-60
2022/08/06 01:51:49;;;;;;;40.47;6.80;;;9.60;99.90;;;;;;5096432;28;20379;-60
2022/08/06 01:54:16;;;;;;;371.45;26.63;;;9.60;99.90;;;;;;5114601;28;20036;-60
2022/08/06 01:56:47;;;;;;;87.57;8.10;;;9.60;99.90;;;;;;5095379;28;20071;-60
2022/08/06 01:59:18;;;;;;;271.25;20.90;;;9.60;99.90;;;;;;5096558;28;20037;-60
2022/08/06 02:01:51;;;;;;;8.02;4.32;;;9.60;99.90;;;;;;5114650;28;20054;-60
2022/08/06 02:04:18;;;;;;;4.72;3.13;;;9.60;99.90;;;;;;5112195;28;20039;-60
2022/08/06 02:06:46;;;;;;;4.55;2.95;;;9.60;99.90;;;;;;5095741;28;20055;-60
2022/08/06 02:09:16;;;;;;;5.18;3.42;;;9.50;99.90;;;;;;5114599;28;20055;-60
2022/08/06 02:11:46;;;;;;;6.18;3.78;;;9.40;99.90;;;;;;5114465;28;20036;-60
2022/08/06 02:14:14;;;;;;;5.10;4.25;;;9.40;99.90;;;;;;5114479;28;20507;-60
2022/08/06 02:16:42;;;;;;;6.93;4.38;;;9.40;99.90;;;;;;5079293;28;20066;-60
2022/08/06 02:19:13;;;;;;;9.68;4.28;;;9.40;99.90;;;;;;5114195;28;20079;-60
2022/08/06 02:21:43;;;;;;;5.10;4.03;;;9.40;99.90;;;;;;5095856;28;20100;-60
2022/08/06 02:24:09;;;;;;;4.80;4.05;;;9.40;99.90;;;;;;5096294;28;20043;-60
2022/08/06 02:26:37;;;;;;;6.80;4.78;;;9.40;99.90;;;;;;5096302;28;20685;-60
2022/08/06 02:29:06;;;;;;;5.40;4.25;;;9.40;99.90;;;;;;5114246;28;20574;-61
2022/08/06 02:31:33;;;;;;;6.20;3.53;;;9.50;99.90;;;;;;5114033;28;20066;-60
2022/08/06 02:33:59;;;;;;;6.00;3.63;;;9.50;99.90;;;;;;5093216;28;20122;-60
2022/08/06 02:36:32;;;;;;;4.78;4.03;;;9.40;99.90;;;;;;5113974;28;20096;-60
2022/08/06 02:39:37;;;;;;;5.05;3.85;;;9.40;99.90;;;;;;5114258;28;20041;-60
2022/08/06 02:42:09;;;;;;;5.30;3.42;;;9.40;99.90;;;;;;5055256;28;20423;-60
2022/08/06 02:44:38;;;;;;;5.78;4.47;;;9.30;99.90;;;;;;5113685;28;20138;-60
2022/08/06 02:47:11;;;;;;;8.20;4.85;;;9.30;99.90;;;;;;5095471;28;20079;-61
2022/08/06 02:49:44;;;;;;;7.45;5.35;;;9.20;99.90;;;;;;5095563;28;20074;-60
2022/08/06 02:52:25;;;;;;;8.40;4.88;;;9.20;99.90;;;;;;5113633;28;20047;-60
2022/08/06 02:55:00;;;;;;;7.18;4.50;;;9.10;99.90;;;;;;5095608;28;20036;-60
2022/08/06 02:57:49;;;;;;;6.03;4.70;;;9.00;99.90;;;;;;5095621;28;20116;-60
2022/08/06 03:00:16;;;;;;;8.13;5.27;;;9.00;99.90;;;;;;5095777;28;20035;-60
2022/08/06 03:02:45;;;;;;;57.35;8.73;;;8.90;99.90;;;;;;5092899;28;20337;-61
2022/08/06 03:05:20;;;;;;;219.77;21.23;;;8.80;99.90;;;;;;5078265;28;20147;-61
2022/08/06 03:07:51;;;;;;;11.20;6.38;;;8.90;99.90;;;;;;5077915;28;20047;-60
2022/08/06 03:10:22;;;;;;;6.90;6.05;;;8.90;99.90;;;;;;5078244;28;20035;-61
2022/08/06 03:12:50;;;;;;;5.95;4.15;;;8.90;99.90;;;;;;5095333;28;20047;-61
2022/08/06 03:15:19;;;;;;;8.45;5.28;;;9.00;99.90;;;;;;5095413;28;20055;-61
2022/08/06 03:17:46;;;;;;;19.48;6.43;;;9.00;99.90;;;;;;5113390;28;20036;-60
2022/08/06 03:20:16;;;;;;;237.75;19.58;;;9.10;99.90;;;;;;5113522;28;20111;-60
2022/08/06 03:22:43;;;;;;;11.70;8.45;;;9.10;99.90;;;;;;5095465;28;20039;-60
2022/08/06 03:25:12;;;;;;;10.80;6.70;;;9.10;99.90;;;;;;5095272;28;20039;-60
2022/08/06 03:27:40;;;;;;;8.43;6.38;;;9.10;99.90;;;;;;5113069;28;20075;-60
2022/08/06 03:30:07;;;;;;;7.38;5.50;;;9.10;99.90;;;;;;5113459;28;20035;-61
2022/08/06 03:32:34;;;;;;;9.27;6.18;;;9.10;99.90;;;;;;5110932;28;20039;-61
2022/08/06 03:35:01;;;;;;;7.10;6.22;;;9.20;99.90;;;;;;5095615;28;20085;-61
2022/08/06 03:37:27;;;;;;;7.85;7.05;;;9.20;99.90;;;;;;5113420;28;20377;-61
2022/08/06 03:39:54;;;;;;;15.00;8.82;;;9.40;99.90;;;;;;5113741;28;20032;-61
2022/08/06 03:42:20;;;;;;;13.50;9.57;;;9.60;99.90;;;;;;5095284;28;20047;-61
2022/08/06 03:44:46;;;;;;;14.45;9.13;;;9.70;99.90;;;;;;5095432;28;20529;-61
2022/08/06 03:47:32;;;;;;;9.95;8.70;;;9.80;99.90;;;;;;5113542;28;20047;-61
2022/08/06 03:50:20;;;;;;;13.80;10.27;;;9.90;99.90;;;;;;5095378;28;20194;-61
2022/08/06 03:52:50;;;;;;;13.13;9.85;;;10.00;99.90;;;;;;5113548;28;20040;-61
2022/08/06 03:55:23;;;;;;;10.07;8.05;;;10.10;99.90;;;;;;5095327;28;20042;-61
2022/08/06 03:57:52;;;;;;;12.57;8.88;;;10.30;99.90;;;;;;5113441;28;20082;-61
2022/08/06 04:00:24;;;;;;;11.07;8.70;;;10.50;99.90;;;;;;5095344;28;20039;-61
2022/08/06 04:02:52;;;;;;;13.45;8.15;;;10.70;99.90;;;;;;5111305;28;20848;-61
2022/08/06 04:05:20;;;;;;;9.10;6.82;;;10.80;99.90;;;;;;5095239;28;20538;-62
2022/08/06 04:07:48;;;;;;;10.02;6.43;;;11.00;99.90;;;;;;5094888;28;20085;-61
2022/08/06 04:10:15;;;;;;;9.02;7.40;;;11.10;99.90;;;;;;5094680;28;20036;-61
2022/08/06 04:12:43;;;;;;;9.30;6.15;;;11.30;99.90;;;;;;5113448;28;20173;-61
2022/08/06 04:15:11;;;;;;;10.13;5.82;;;11.40;99.90;;;;;;5113315;28;20046;-61
2022/08/06 04:17:39;;;;;;;7.80;5.07;;;11.50;99.90;;;;;;5095305;28;20035;-61
2022/08/06 04:20:07;;;;;;;7.30;4.18;;;11.70;99.90;;;;;;5093929;28;20040;-61
2022/08/06 04:22:33;;;;;;;7.85;3.65;;;11.80;99.90;;;;;;5112116;28;20046;-61
2022/08/06 04:24:59;;;;;;;5.70;3.60;;;11.90;99.90;;;;;;5094438;28;20044;-61
2022/08/06 04:27:27;;;;;;;6.10;3.60;;;12.10;99.90;;;;;;5077327;28;20093;-61
2022/08/06 04:29:55;;;;;;;7.07;4.05;;;12.20;99.90;;;;;;5093988;28;20183;-60
2022/08/06 04:32:22;;;;;;;8.43;4.00;;;12.30;99.90;;;;;;5093676;28;20380;-61
2022/08/06 04:34:50;;;;;;;6.28;3.35;;;12.30;99.90;;;;;;5091966;28;20043;-61
2022/08/06 04:37:17;;;;;;;7.85;3.67;;;12.30;99.90;;;;;;5076792;28;20043;-60
2022/08/06 04:39:44;;;;;;;5.55;2.72;;;12.40;99.90;;;;;;5094378;28;20123;-61
2022/08/06 04:42:10;;;;;;;4.90;3.15;;;12.40;99.90;;;;;;5094802;28;20534;-61
2022/08/06 04:44:37;;;;;;;5.32;3.33;;;12.40;99.90;;;;;;5094992;28;20415;-60
2022/08/06 04:47:03;;;;;;;5.82;3.28;;;12.40;99.90;;;;;;5095014;28;20418;-60
2022/08/06 04:49:30;;;;;;;5.22;2.58;;;12.40;99.90;;;;;;5094067;28;20036;-60
2022/08/06 04:51:55;;;;;;;6.40;2.70;;;12.30;99.90;;;;;;5076975;28;20039;-60
2022/08/06 04:54:21;;;;;;;6.10;2.28;;;12.30;99.90;;;;;;5094008;28;20556;-61
2022/08/06 04:56:47;;;;;;;5.72;3.00;;;12.30;99.90;;;;;;5112153;28;20040;-60
2022/08/06 04:59:13;;;;;;;4.68;3.08;;;12.30;99.90;;;;;;5112070;28;20039;-60
2022/08/06 05:01:39;;;;;;;5.07;2.53;;;12.30;99.90;;;;;;5076928;28;20043;-60
2022/08/06 05:04:05;;;;;;;4.68;3.17;;;12.30;99.90;;;;;;5091364;28;20043;-60
2022/08/06 05:06:46;;;;;;;4.97;2.70;;;12.30;99.90;;;;;;5111674;28;20055;-60
2022/08/06 05:09:19;;;;;;;7.32;3.40;;;12.30;99.90;;;;;;5093810;28;20048;-60
2022/08/06 05:11:51;;;;;;;6.97;4.10;;;12.40;99.90;;;;;;5111956;28;20048;-60
2022/08/06 05:14:24;;;;;;;7.82;4.15;;;12.50;99.90;;;;;;5093862;28;20039;-60
2022/08/06 05:16:51;;;;;;;7.30;5.30;;;12.50;99.90;;;;;;5093766;28;20098;-60
2022/08/06 05:19:26;;;;;;;5.00;4.07;;;12.60;99.90;;;;;;5111934;28;20040;-60
2022/08/06 05:21:53;;;;;;;7.55;4.65;;;12.70;99.90;;;;;;5093758;28;20392;-61
2022/08/06 05:24:19;;;;;;;7.18;5.13;;;12.80;99.90;;;;;;5076805;28;20472;-60
2022/08/06 05:26:46;;;;;;;6.90;4.30;;;12.90;99.90;;;;;;5093545;28;20051;-60
2022/08/06 05:29:12;;;;;;;4.95;3.92;;;12.90;99.90;;;;;;5111510;28;20040;-60
2022/08/06 05:31:41;;;;;;;6.07;4.47;;;12.90;99.90;;;;;;5095272;28;20044;-60
2022/08/06 05:34:11;;;;;;;5.93;3.70;;;13.00;99.90;;;;;;5094973;28;20035;-61
2022/08/06 05:36:38;;;;;;;;;;;13.20;99.90;;;;;;5097508;28;20491;-60
2022/08/06 05:39:04;;;;;;;10.75;7.63;;;13.30;99.90;;;;;;5115376;28;19959;-60
2022/08/06 05:41:30;;;;;;;11.98;8.13;;;13.40;99.90;;;;;;5110054;28;20036;-60
2022/08/06 05:43:58;;;;;;;9.98;7.32;;;13.50;99.90;;;;;;5076514;28;20044;-60
2022/08/06 05:46:26;;;;;;;7.53;6.47;;;13.60;99.90;;;;;;5076897;28;20040;-61
2022/08/06 05:48:58;;;;;;;9.93;7.68;;;13.70;99.90;;;;;;5076592;28;20051;-61
2022/08/06 05:51:45;;;;;;;5.80;4.90;;;13.80;99.90;;;;;;5076502;28;20043;-61
2022/08/06 05:54:52;;;;;;;5.13;2.65;;;14.00;99.90;;;;;;5076558;28;20050;-61
2022/08/06 05:57:25;;;;;;;6.40;2.33;;;14.10;99.90;;;;;;5094588;28;20040;-60
2022/08/06 06:00:01;;;;;;;3.13;2.03;;;14.20;99.90;;;;;;5076618;28;20040;-61
2022/08/06 06:02:29;;;;;;;3.42;2.00;;;14.30;99.90;;;;;;5093721;28;20111;-60
2022/08/06 06:04:55;;;;;;;3.65;1.60;;;14.40;99.90;;;;;;5093389;28;20042;-60
2022/08/06 06:07:22;;;;;;;3.03;1.80;;;14.50;99.90;;;;;;5092681;28;20055;-60
2022/08/06 06:09:49;;;;;;;4.50;1.92;;;14.60;99.90;;;;;;5113436;28;20044;-60
2022/08/06 06:12:16;;;;;;;5.78;1.75;;;14.80;99.90;;;;;;5114807;28;20130;-60
2022/08/06 06:14:44;;;;;;;4.47;2.25;;;14.90;99.90;;;;;;5113580;28;20043;-60
2022/08/06 06:17:38;;;;;;;3.47;1.55;;;15.00;99.90;;;;;;5114620;28;20067;-60
2022/08/06 06:20:14;;;;;;;2.85;1.27;;;15.20;99.90;;;;;;5114639;28;20458;-60
2022/08/06 06:23:04;;;;;;;2.58;1.40;;;15.40;99.90;;;;;;5114581;28;20043;-60
2022/08/06 06:25:43;;;;;;;1.85;1.00;;;15.60;99.90;;;;;;5113131;28;20130;-60
2022/08/06 06:28:24;;;;;;;4.90;1.10;;;15.70;99.90;;;;;;5114434;28;20067;-60
2022/08/06 06:31:06;;;;;;;5.82;1.30;;;16.00;99.90;;;;;;5095982;28;20075;-61
2022/08/06 06:33:38;;;;;;;2.05;0.70;;;16.20;99.90;;;;;;5110954;28;20054;-60
2022/08/06 06:36:27;;;;;;;3.35;1.05;;;16.50;99.90;;;;;;5113163;28;20130;-61
2022/08/06 06:39:04;;;;;;;2.33;0.70;;;16.90;99.90;;;;;;5114438;28;20042;-60
2022/08/06 06:41:45;;;;;;;2.15;1.10;;;17.30;99.90;;;;;;5113143;28;20089;-60
2022/08/06 06:44:28;;;;;;;3.83;0.85;;;17.70;99.90;;;;;;5112408;28;20039;-60
2022/08/06 06:47:00;;;;;;;2.25;0.73;;;18.00;99.90;;;;;;5114500;28;20051;-61
2022/08/06 06:49:58;;;;;;;2.83;0.88;;;18.40;99.90;;;;;;5114743;28;20047;-60
2022/08/06 06:52:41;;;;;;;3.00;1.00;;;18.70;99.90;;;;;;5113478;28;20126;-60
2022/08/06 06:55:16;;;;;;;4.22;0.88;;;19.10;99.90;;;;;;5113483;28;20363;-60
2022/08/06 06:57:46;;;;;;;2.40;0.70;;;19.40;99.90;;;;;;5113426;28;20036;-60
2022/08/06 07:00:13;;;;;;;1.60;0.63;;;19.60;99.90;;;;;;5113343;28;20122;-60
2022/08/06 07:02:41;;;;;;;3.10;0.47;;;19.70;99.90;;;;;;5110853;28;20490;-60
2022/08/06 07:05:11;;;;;;;1.88;0.70;;;19.80;99.90;;;;;;5110549;28;20433;-60
2022/08/06 07:07:40;;;;;;;2.22;0.40;;;19.80;99.90;;;;;;5113007;28;20048;-60
2022/08/06 07:10:09;;;;;;;1.65;0.45;;;20.00;99.90;;;;;;5113261;28;20046;-60
2022/08/06 07:12:36;;;;;;;1.90;0.60;;;20.10;99.90;;;;;;5114360;28;20464;-60
2022/08/06 07:15:05;;;;;;;5.18;0.73;;;20.20;99.90;;;;;;5096004;28;20045;-60
2022/08/06 07:17:34;;;;;;;1.90;0.52;;;20.20;99.90;;;;;;5113181;28;20096;-60
2022/08/06 07:20:04;;;;;;;3.60;0.60;;;20.30;99.90;;;;;;5114171;28;20073;-60
2022/08/06 07:22:31;;;;;;;3.33;0.55;;;20.40;99.90;;;;;;5113275;28;20039;-60
2022/08/06 07:25:01;;;;;;;2.28;0.50;;;20.50;99.90;;;;;;5114190;28;20040;-60
2022/08/06 07:27:39;;;;;;;2.88;0.60;;;20.60;99.90;;;;;;5112819;28;20039;-60
2022/08/06 07:30:06;;;;;;;2.53;0.65;;;20.70;99.90;;;;;;5112930;28;20039;-60
2022/08/06 07:32:37;;;;;;;4.65;0.80;;;20.70;99.90;;;;;;5111163;28;20063;-60
2022/08/06 07:35:08;;;;;;;3.65;1.10;;;20.70;99.90;;;;;;5114096;28;20031;-60
2022/08/06 07:37:40;;;;;;;3.45;1.10;;;20.70;99.90;;;;;;5109299;28;20143;-60
2022/08/06 07:40:44;;;;;;;3.38;0.90;;;20.80;99.90;;;;;;5112179;28;20031;-61
2022/08/06 07:43:15;;;;;;;4.65;1.40;;;20.90;99.90;;;;;;5107592;28;20088;-61
2022/08/06 07:45:41;;;;;;;2.20;0.90;;;21.10;99.90;;;;;;5095731;28;20060;-60
2022/08/06 07:48:12;;;;;;;2.05;0.98;;;21.30;99.90;;;;;;5112740;28;20047;-60
2022/08/06 07:50:41;;;;;;;2.22;1.02;;;21.50;99.90;;;;;;5112651;28;20043;-61
2022/08/06 07:53:10;;;;;;;2.88;1.30;;;21.60;99.90;;;;;;5095273;28;20040;-61
2022/08/06 07:55:38;;;;;;;3.30;1.20;;;21.50;99.90;;;;;;5111477;28;20035;-60
2022/08/06 07:58:06;;;;;;;6.38;1.45;;;21.10;99.90;;;;;;5112811;28;20430;-60
2022/08/06 08:00:32;;;;;;;2.92;1.20;;;20.80;99.90;;;;;;5113422;28;20126;-60
2022/08/06 08:08:30;;;;;;;3.17;1.48;;;20.10;99.90;;;;;;5095048;28;20101;-60
2022/08/06 08:10:56;;;;;;;6.60;1.40;;;20.60;99.90;;;;;;5094901;28;20042;-60
2022/08/06 08:13:24;;;;;;;3.75;1.30;;;21.10;99.90;;;;;;5113334;28;20387;-60
2022/08/06 08:15:51;;;;;;;5.53;1.60;;;21.20;99.90;;;;;;5094926;28;20119;-61
2022/08/06 08:18:17;;;;;;;3.97;1.88;;;20.90;99.90;;;;;;5095152;28;20036;-60
2022/08/06 08:20:44;;;;;;;2.20;1.23;;;20.50;99.90;;;;;;5094821;28;20380;-60
2022/08/06 08:23:13;;;;;;;5.00;1.73;;;20.30;99.90;;;;;;5078362;28;20039;-60
2022/08/06 08:25:39;;;;;;;5.28;1.50;;;20.00;99.90;;;;;;5094815;28;20054;-60
2022/08/06 08:28:06;;;;;;;4.63;1.65;;;19.80;99.90;;;;;;5095164;28;20371;-61
2022/08/06 08:30:32;;;;;;;3.35;1.50;;;19.90;99.90;;;;;;5113090;28;20419;-60
2022/08/06 08:32:58;;;;;;;3.33;1.92;;;20.40;99.90;;;;;;5110526;28;20036;-61
2022/08/06 08:35:23;;;;;;;5.45;1.40;;;21.00;99.90;;;;;;5077962;28;20114;-60
2022/08/06 08:37:49;;;;;;;3.97;1.60;;;21.60;99.90;;;;;;5077930;28;20036;-61
2022/08/06 08:40:15;;;;;;;2.50;1.20;;;21.60;99.90;;;;;;5094764;28;20035;-61
2022/08/06 08:42:46;;;;;;;3.90;1.90;;;21.30;99.90;;;;;;5112718;28;20084;-61
2022/08/06 08:45:13;;;;;;;3.33;1.48;;;20.80;99.90;;;;;;5113060;28;20131;-60
2022/08/06 08:47:46;;;;;;;3.92;1.50;;;20.40;99.90;;;;;;5094700;28;20040;-60
2022/08/06 08:50:12;;;;;;;5.45;1.73;;;20.20;99.90;;;;;;5077956;28;20066;-61
2022/08/06 08:52:43;;;;;;;2.75;1.48;;;19.90;99.90;;;;;;5094607;28;20036;-60
2022/08/06 08:55:12;;;;;;;4.07;1.73;;;19.70;99.90;;;;;;5077737;28;20032;-61
2022/08/06 08:57:38;;;;;;;3.33;1.80;;;19.50;99.90;;;;;;5112772;28;20506;-61
2022/08/06 09:00:06;;;;;;;2.95;1.55;;;19.30;99.90;;;;;;5094506;28;20502;-60
2022/08/06 09:02:32;;;;;;;4.40;1.60;;;19.20;99.90;;;;;;5076917;28;20093;-60
2022/08/06 09:04:59;;;;;;;4.22;1.60;;;19.10;99.90;;;;;;5093509;28;20097;-60
2022/08/06 09:07:26;;;;;;;3.90;1.67;;;19.30;99.90;;;;;;5097441;28;20055;-61
2022/08/06 09:09:52;;;;;;;3.53;1.60;;;19.80;99.90;;;;;;5081843;28;20044;-60
2022/08/06 09:12:19;;;;;;;2.33;1.50;;;20.40;99.90;;;;;;5098191;28;20491;-61
2022/08/06 09:14:46;;;;;;;2.08;1.38;;;21.00;99.90;;;;;;5098339;28;20047;-61
2022/08/06 09:17:12;;;;;;;3.10;1.73;;;21.40;99.90;;;;;;5098064;28;20043;-61
2022/08/06 09:19:38;;;;;;;4.25;1.50;;;21.80;99.90;;;;;;5081020;28;20043;-61
2022/08/06 09:22:05;;;;;;;2.55;1.58;;;22.20;99.90;;;;;;5116497;28;20040;-61
2022/08/06 09:24:32;;;;;;;3.55;1.65;;;22.50;99.90;;;;;;5098048;28;20051;-61
2022/08/06 09:27:13;;;;;;;2.58;1.40;;;22.90;99.90;;;;;;5081257;28;20035;-61
2022/08/06 09:29:53;;;;;;;2.88;1.45;;;23.30;99.90;;;;;;5098392;28;20383;-61
2022/08/06 09:32:42;;;;;;;2.25;1.27;;;23.50;99.10;;;;;;5116244;28;20062;-62
2022/08/06 09:35:20;;;;;;;3.67;1.60;;;23.70;98.70;;;;;;5098292;28;20122;-61
2022/08/06 09:37:47;;;;;;;3.50;1.60;;;23.80;96.70;;;;;;5097864;28;20524;-61
2022/08/06 09:40:15;;;;;;;2.85;1.50;;;23.80;97.40;;;;;;5098252;28;20039;-61
2022/08/06 09:42:44;;;;;;;3.70;1.48;;;24.10;96.00;;;;;;5098027;28;20036;-61
2022/08/06 09:45:13;;;;;;;2.20;1.33;;;24.60;96.20;;;;;;5116007;28;20467;-61
2022/08/06 09:47:39;;;;;;;3.08;1.92;;;25.00;94.50;;;;;;5097909;28;20142;-61
2022/08/06 09:50:06;;;;;;;3.35;1.50;;;24.90;92.60;;;;;;5115985;28;20114;-61
2022/08/06 09:52:32;;;;;;;2.70;1.30;;;24.40;91.60;;;;;;5097526;28;20047;-60
2022/08/06 09:54:58;;;;;;;2.88;1.55;;;24.20;91.60;;;;;;5115853;28;20035;-61
2022/08/06 09:57:44;;;;;;;4.22;1.63;;;24.00;90.70;;;;;;5080539;28;20042;-61
2022/08/06 10:00:11;;;;;;;3.03;1.10;;;24.10;90.60;;;;;;5115828;28;20028;-62
2022/08/06 10:02:38;;;;;;;2.42;1.40;;;24.40;91.50;;;;;;5114197;28;20365;-61
2022/08/06 10:05:13;;;;;;;3.97;1.38;;;24.80;90.70;;;;;;5096925;28;20043;-61
2022/08/06 10:07:40;;;;;;;3.78;1.27;;;24.90;88.10;;;;;;5115446;28;20062;-60
2022/08/06 10:10:07;;;;;;;5.40;1.30;;;25.00;88.50;;;;;;5097631;28;20372;-61
2022/08/06 10:12:33;;;;;;;5.85;1.85;;;24.60;87.50;;;;;;5097199;28;20043;-60
2022/08/06 10:15:00;;;;;;;2.33;1.23;;;24.00;85.70;;;;;;5097377;28;20036;-61
2022/08/06 10:17:26;;;;;;;2.90;1.27;;;23.20;85.40;;;;;;5079191;28;20484;-60
2022/08/06 10:20:12;;;;;;;3.88;1.35;;;22.70;90.20;;;;;;5097456;28;20036;-60
2022/08/06 10:22:53;;;;;;;2.53;1.30;;;22.10;90.50;;;;;;5097278;28;20085;-61
2022/08/06 10:25:22;;;;;;;3.78;1.13;;;21.80;91.30;;;;;;5097035;28;20045;-61
2022/08/06 10:27:50;;;;;;;2.33;1.42;;;21.60;93.00;;;;;;5097320;28;20036;-61
2022/08/06 10:30:16;;;;;;;3.33;1.48;;;22.20;93.00;;;;;;5097181;28;20150;-61
2022/08/06 10:32:58;;;;;;;4.40;1.55;;;22.90;90.00;;;;;;5094328;28;20546;-61
2022/08/06 10:35:24;;;;;;;2.90;1.60;;;23.30;89.50;;;;;;5096787;28;20097;-61
2022/08/06 10:37:58;;;;;;;2.85;1.08;;;24.10;90.70;;;;;;5096876;28;20039;-60
2022/08/06 10:40:25;;;;;;;2.53;1.35;;;24.60;89.10;;;;;;5114941;28;20045;-61
2022/08/06 10:42:52;;;;;;;2.53;1.48;;;24.30;88.40;;;;;;5079706;28;20069;-60
2022/08/06 10:45:18;;;;;;;3.47;1.30;;;23.60;88.30;;;;;;5096607;28;20035;-60
2022/08/06 10:47:46;;;;;;;3.58;1.95;;;22.90;90.00;;;;;;5079536;28;20043;-60
2022/08/06 10:50:13;;;;;;;2.40;1.30;;;22.20;90.90;;;;;;5114046;28;20032;-61
2022/08/06 10:52:44;;;;;;;2.70;1.60;;;21.70;91.90;;;;;;5113573;28;20043;-61
2022/08/06 10:55:11;;;;;;;3.80;1.45;;;21.60;93.90;;;;;;5114414;28;20122;-61
2022/08/06 10:57:40;;;;;;;3.95;1.58;;;22.20;93.80;;;;;;5113802;28;20066;-61
2022/08/06 11:00:06;;;;;;;2.08;1.13;;;22.90;93.80;;;;;;5095296;28;20050;-60
2022/08/06 11:03:16;;;;;;;1.98;1.38;;;23.50;91.80;;;;;;5112843;28;20073;-60
2022/08/06 11:05:46;;;;;;;2.75;1.40;;;24.00;86.40;;;;;;4994486;28;20044;-61
2022/08/06 11:08:30;;;;;;;2.78;1.58;;;23.90;87.00;;;;;;4994449;28;20049;-61
2022/08/06 11:11:07;;;;;;;2.85;1.30;;;23.70;84.40;;;;;;5078111;28;20104;-60
2022/08/06 11:14:10;;;;;;;3.35;1.45;;;23.70;85.00;;;;;;5096159;28;20031;-60
2022/08/06 11:16:37;;;;;;;2.80;1.50;;;23.90;83.30;;;;;;5078936;28;20036;-61
2022/08/06 11:19:07;;;;;;;2.03;1.02;;;23.40;82.40;;;;;;5114274;28;20032;-61
2022/08/06 11:21:42;;;;;;;2.25;1.35;;;23.00;84.20;;;;;;5113907;28;20553;-60
2022/08/06 11:24:08;;;;;;;2.60;1.55;;;22.70;86.80;;;;;;5095117;28;20128;-60
2022/08/06 11:26:39;;;;;;;2.92;1.50;;;22.50;90.40;;;;;;5113287;28;20044;-60
2022/08/06 11:29:11;;;;;;;4.10;1.92;;;22.40;91.10;;;;;;5094942;28;20058;-61
2022/08/06 11:31:48;;;;;;;2.80;1.40;;;22.60;92.80;;;;;;5112876;28;20045;-61
2022/08/06 11:34:19;;;;;;;3.60;1.60;;;23.10;91.70;;;;;;5092448;28;20031;-61
2022/08/06 11:36:51;;;;;;;2.38;1.30;;;23.30;91.30;;;;;;5095092;28;20040;-61
2022/08/06 11:39:21;;;;;;;3.08;1.55;;;23.60;88.90;;;;;;5094595;28;20040;-61
2022/08/06 11:42:00;;;;;;;2.08;1.35;;;23.90;89.60;;;;;;5094604;28;20043;-61
2022/08/06 11:44:31;;;;;;;2.28;1.10;;;24.00;88.90;;;;;;5094843;28;20496;-62
2022/08/06 11:47:12;;;;;;;2.10;1.33;;;23.90;87.50;;;;;;5077640;28;20065;-61
2022/08/06 11:49:47;;;;;;;3.63;1.30;;;24.00;85.80;;;;;;5094231;28;20043;-60
2022/08/06 11:52:31;;;;;;;1.65;1.20;;;24.00;86.90;;;;;;5094423;28;20039;-60
2022/08/06 11:55:04;;;;;;;2.30;1.30;;;24.30;87.90;;;;;;5094347;28;20040;-60
2022/08/06 11:57:31;;;;;;;2.63;1.00;;;24.50;84.70;;;;;;5077286;28;20405;-60
2022/08/06 11:59:57;;;;;;;1.80;1.08;;;24.70;84.50;;;;;;5094282;28;20039;-60
2022/08/06 12:02:41;;;;;;;3.30;1.40;;;24.50;80.40;;;;;;5094529;28;20069;-61
2022/08/06 12:05:27;;;;;;;3.17;1.52;;;24.00;83.20;;;;;;5112397;28;20126;-60
2022/08/06 12:08:14;;;;;;;2.50;1.42;;;23.60;84.20;;;;;;5094238;28;20427;-60
2022/08/06 12:11:19;;;;;;;1.75;1.17;;;23.20;86.20;;;;;;5094447;28;20039;-59
2022/08/06 12:13:45;;;;;;;9.75;1.60;;;23.20;85.80;;;;;;5112264;28;20075;-60
2022/08/06 12:16:35;;;;;;;3.47;1.70;;;23.20;87.00;;;;;;5094300;28;20105;-59
2022/08/06 12:19:03;;;;;;;3.35;1.83;;;23.00;90.20;;;;;;5094733;28;20387;-60
2022/08/06 12:21:29;;;;;;;2.38;1.40;;;22.70;89.50;;;;;;5112216;28;20040;-60
2022/08/06 12:23:56;;;;;;;2.08;1.40;;;22.30;88.50;;;;;;5112686;28;20043;-60
2022/08/06 12:26:22;;;;;;;2.60;1.50;;;22.00;89.50;;;;;;5113180;28;20507;-60
2022/08/06 12:28:49;;;;;;;3.92;1.83;;;21.80;89.80;;;;;;5094299;28;20046;-60
2022/08/06 12:31:34;;;;;;;3.20;2.20;;;21.60;89.90;;;;;;5077465;28;20044;-60
2022/08/06 12:34:01;;;;;;;3.40;2.03;;;21.50;91.00;;;;;;5110126;28;20055;-60
2022/08/06 12:36:29;;;;;;;3.47;1.38;;;21.50;91.40;;;;;;5077526;28;20048;-60
2022/08/06 12:38:57;;;;;;;2.35;1.63;;;21.60;91.30;;;;;;5112135;28;20110;-60
2022/08/06 12:41:32;;;;;;;2.20;1.55;;;21.70;90.30;;;;;;5095048;28;20438;-60
2022/08/06 12:43:58;;;;;;;1.95;1.50;;;21.70;91.00;;;;;;5116507;28;20044;-60
2022/08/06 12:46:25;;;;;;;2.63;1.75;;;21.60;91.10;;;;;;5098204;28;20040;-60
2022/08/06 12:48:51;;;;;;;2.72;1.63;;;21.60;90.80;;;;;;5116221;28;20067;-60
2022/08/06 12:51:18;;;;;;;3.28;1.63;;;21.40;90.90;;;;;;5116081;28;20039;-60
2022/08/06 12:53:48;;;;;;;1.98;1.40;;;21.20;91.20;;;;;;5116180;28;20043;-61
2022/08/06 12:56:17;;;;;;;3.67;1.35;;;21.10;91.90;;;;;;5080838;28;20106;-60
2022/08/06 12:58:51;;;;;;;2.30;1.63;;;21.30;91.60;;;;;;5080124;28;20455;-61
2022/08/06 13:01:20;;;;;;;2.30;1.40;;;21.60;92.30;;;;;;5077351;28;20036;-61
2022/08/06 13:03:48;;;;;;;;;;;22.00;91.10;;;;;;5093622;28;20040;-61
2022/08/06 13:06:17;;;;;;;3.28;1.45;;;22.10;90.20;;;;;;5095073;28;19920;-60
2022/08/06 13:08:47;;;;;;;2.55;2.20;;;22.10;90.40;;;;;;5077245;28;20040;-60
2022/08/06 13:11:14;;;;;;;3.60;1.58;;;22.10;89.90;;;;;;5077069;28;20040;-60
2022/08/06 13:14:09;;;;;;;3.70;1.65;;;22.10;90.10;;;;;;5095342;28;20091;-60